Time;durP1;ratioP1;P1;durP2;ratioP2;P2;SDS_P1;SDS_P2;PMS_P1;PMS_P2;Temp;Humidity;BMP_temperature;BMP_pressure;BME280_temperature;BME280_humidity;BME280_pressure;Samples;Min_cycle;Max_cycle;Signal;HPM_P1;HPM_P2
2024/01/26 00:00:03;;;;;;;12.30;6.32;;;;;;;12.94;99.75;102176.72;5028209;28;20053;-65
2024/01/26 00:02:38;;;;;;;11.77;5.68;;;;;;;13.06;98.82;102173.56;5027844;28;20053;-64
2024/01/26 00:05:06;;;;;;;8.73;5.50;;;;;;;12.78;99.84;102168.91;5031732;28;20888;-63
2024/01/26 00:07:33;;;;;;;13.57;5.97;;;;;;;12.82;100.00;102168.03;5029274;28;20041;-65
2024/01/26 00:10:01;;;;;;;10.38;5.90;;;;;;;12.90;99.71;102170.13;5037283;28;20059;-64
2024/01/26 00:12:30;;;;;;;11.35;6.03;;;;;;;13.09;98.57;102168.28;5025569;28;20152;-64
2024/01/26 00:14:58;;;;;;;13.35;6.97;;;;;;;12.89;100.00;102175.97;5027396;28;20053;-64
2024/01/26 00:17:26;;;;;;;12.00;5.50;;;;;;;12.94;99.80;102181.44;5043892;28;20048;-65
2024/01/26 00:19:54;;;;;;;13.73;6.53;;;;;;;13.00;99.48;102185.81;5058121;28;20516;-63
2024/01/26 00:22:21;;;;;;;10.55;5.85;;;;;;;12.61;100.00;102183.16;5043533;28;20057;-64
2024/01/26 00:24:49;;;;;;;12.00;6.18;;;;;;;12.69;100.00;102179.78;5043874;28;20532;-64
2024/01/26 00:27:16;;;;;;;14.02;6.72;;;;;;;12.77;100.00;102168.09;5046781;28;20056;-64
2024/01/26 00:29:43;;;;;;;13.32;6.18;;;;;;;12.91;100.00;102148.84;5046763;28;20106;-69
2024/01/26 00:32:10;;;;;;;13.60;6.95;;;;;;;13.32;99.55;102139.78;5029384;28;20072;-64
2024/01/26 00:34:38;;;;;;;17.48;6.80;;;;;;;13.28;98.11;102137.91;5036690;28;20068;-63
2024/01/26 00:37:08;;;;;;;10.85;5.85;;;;;;;13.14;98.59;102143.34;5047271;28;20078;-68
2024/01/26 00:39:35;;;;;;;12.00;6.68;;;;;;;13.04;99.51;102137.91;5045919;28;20080;-63
2024/01/26 00:42:03;;;;;;;11.88;7.18;;;;;;;13.05;99.90;102153.41;5027331;28;20067;-66
2024/01/26 00:44:30;;;;;;;11.57;6.40;;;;;;;13.06;99.77;102151.44;5058703;28;20565;-64
2024/01/26 00:46:57;;;;;;;14.85;7.05;;;;;;;12.91;100.00;102149.69;5057673;28;20527;-64
2024/01/26 00:49:25;;;;;;;11.02;7.10;;;;;;;12.86;100.00;102135.91;5027081;28;20056;-62
2024/01/26 00:52:17;;;;;;;15.00;6.88;;;;;;;13.00;100.00;102141.56;5028425;28;20049;-65
2024/01/26 00:54:45;;;;;;;15.68;7.43;;;;;;;12.79;100.00;102132.66;5026882;28;20060;-62
2024/01/26 00:57:12;;;;;;;13.15;7.47;;;;;;;12.90;100.00;102134.19;5041545;28;20638;-62
2024/01/26 00:59:39;;;;;;;14.13;7.63;;;;;;;12.66;100.00;102124.25;5038643;28;20495;-63
2024/01/26 01:02:07;;;;;;;14.95;7.57;;;;;;;12.81;100.00;102115.78;5081903;28;20068;-63
2024/01/26 01:04:37;;;;;;;;;;;;;;;13.10;100.00;102109.09;5051887;28;20067;-63
2024/01/26 01:07:04;;;;;;;14.43;7.78;;;;;;;13.11;100.00;102110.72;5050867;28;20617;-63
2024/01/26 01:09:31;;;;;;;15.10;8.88;;;;;;;13.17;100.00;102101.25;5066224;28;20053;-62
2024/01/26 01:11:59;;;;;;;16.73;8.20;;;;;;;12.96;100.00;102110.88;5049324;28;20053;-63
2024/01/26 01:14:28;;;;;;;13.27;8.13;;;;;;;12.92;100.00;102104.28;5046581;28;20677;-63
2024/01/26 01:16:59;;;;;;;14.95;8.18;;;;;;;12.97;100.00;102118.06;5031974;28;20053;-61
2024/01/26 01:19:26;;;;;;;22.35;8.65;;;;;;;13.15;100.00;102128.38;5047796;28;20073;-63
2024/01/26 01:21:53;;;;;;;14.85;8.10;;;;;;;13.12;100.00;102111.56;5048226;28;20057;-63
2024/01/26 01:24:20;;;;;;;15.43;8.65;;;;;;;13.02;100.00;102100.63;5054100;28;20052;-61
2024/01/26 01:26:47;;;;;;;17.05;8.38;;;;;;;13.03;100.00;102100.31;5049644;28;20120;-64
2024/01/26 01:29:15;;;;;;;14.60;8.27;;;;;;;13.15;100.00;102099.88;5031227;28;20063;-62
2024/01/26 01:31:42;;;;;;;16.35;8.48;;;;;;;13.10;100.00;102105.47;5049469;28;20638;-63
2024/01/26 01:34:09;;;;;;;15.60;8.25;;;;;;;12.81;100.00;102107.50;5048567;28;20064;-62
2024/01/26 01:36:37;;;;;;;15.68;8.00;;;;;;;12.87;100.00;102117.34;5048082;28;20057;-63
2024/01/26 01:39:04;;;;;;;17.50;8.25;;;;;;;12.89;100.00;102115.94;5050207;28;20060;-64
2024/01/26 01:41:32;;;;;;;19.02;8.30;;;;;;;12.90;100.00;102116.78;5049872;28;20056;-64
2024/01/26 01:43:59;;;;;;;17.38;8.40;;;;;;;13.17;100.00;102119.78;5048740;28;20567;-64
2024/01/26 01:46:27;;;;;;;13.20;8.07;;;;;;;13.10;100.00;102117.38;5049105;28;20049;-63
2024/01/26 01:48:54;;;;;;;15.65;8.00;;;;;;;13.07;100.00;102119.91;5036452;28;20064;-63
2024/01/26 01:51:22;;;;;;;13.85;7.88;;;;;;;12.95;100.00;102125.84;5048799;28;20071;-64
2024/01/26 01:53:49;;;;;;;12.48;7.68;;;;;;;12.89;100.00;102129.78;5047539;28;20436;-64
2024/01/26 01:56:20;;;;;;;17.92;8.30;;;;;;;12.96;100.00;102132.19;5048912;28;20136;-65
2024/01/26 01:58:48;;;;;;;21.15;8.48;;;;;;;12.86;100.00;102122.09;5048409;28;20052;-64
2024/01/26 02:01:15;;;;;;;17.50;8.00;;;;;;;13.11;100.00;102119.03;5031191;28;20076;-64
2024/01/26 02:03:43;;;;;;;13.13;7.78;;;;;;;12.99;100.00;102104.75;5048450;28;20053;-64
2024/01/26 02:06:10;;;;;;;16.77;7.82;;;;;;;12.97;100.00;102101.47;5048469;28;20063;-64
2024/01/26 02:08:37;;;;;;;12.07;7.78;;;;;;;13.00;100.00;102108.34;5048721;28;20064;-64
2024/01/26 02:11:04;;;;;;;13.32;7.93;;;;;;;13.02;100.00;102103.38;5045698;28;20068;-63
2024/01/26 02:13:32;;;;;;;14.68;7.60;;;;;;;13.10;100.00;102100.78;5043444;28;20049;-64
2024/01/26 02:15:59;;;;;;;15.38;7.93;;;;;;;13.04;100.00;102113.03;5044162;28;20068;-65
2024/01/26 02:18:27;;;;;;;14.52;7.40;;;;;;;13.01;100.00;102098.94;5071923;28;20064;-64
2024/01/26 02:20:54;;;;;;;12.55;7.63;;;;;;;12.88;100.00;102105.19;5047826;28;20063;-64
2024/01/26 02:23:23;;;;;;;14.38;8.07;;;;;;;13.02;100.00;102098.66;5053864;28;20048;-65
2024/01/26 02:25:50;;;;;;;13.27;7.30;;;;;;;12.94;100.00;102087.41;5048797;28;20068;-65
2024/01/26 02:28:18;;;;;;;12.70;7.15;;;;;;;13.11;100.00;102093.31;5047209;28;20548;-64
2024/01/26 02:30:45;;;;;;;13.35;6.95;;;;;;;13.16;100.00;102093.25;5033006;28;20053;-65
2024/01/26 02:33:13;;;;;;;14.85;7.38;;;;;;;13.11;100.00;102090.56;5039911;28;20045;-63
2024/01/26 02:35:41;;;;;;;15.20;7.40;;;;;;;13.26;100.00;102082.03;5049661;28;20141;-64
2024/01/26 02:38:08;;;;;;;11.00;6.88;;;;;;;13.32;99.75;102092.72;5047039;28;20049;-63
2024/01/26 02:40:36;;;;;;;13.52;6.60;;;;;;;13.26;99.32;102087.56;5042096;28;20067;-64
2024/01/26 02:43:04;;;;;;;14.85;7.25;;;;;;;13.22;99.60;102090.09;5047871;28;20053;-64
2024/01/26 02:45:31;;;;;;;15.07;7.15;;;;;;;13.30;99.18;102075.59;5034827;28;20074;-65
2024/01/26 02:47:58;;;;;;;15.20;6.53;;;;;;;13.38;98.60;102080.47;5058478;28;20060;-63
2024/01/26 02:50:26;;;;;;;11.73;6.72;;;;;;;13.30;98.56;102075.59;5027805;28;20064;-63
2024/01/26 02:52:53;;;;;;;12.88;7.00;;;;;;;13.28;98.27;102075.09;5028873;28;20053;-64
2024/01/26 02:55:20;;;;;;;14.52;6.88;;;;;;;13.05;99.07;102069.59;5048627;28;20135;-65
2024/01/26 02:57:47;;;;;;;12.90;7.05;;;;;;;13.02;99.78;102075.72;5048204;28;20412;-63
2024/01/26 03:00:16;;;;;;;11.90;6.90;;;;;;;13.15;99.34;102069.44;5047715;28;20543;-64
2024/01/26 03:02:44;;;;;;;12.57;6.60;;;;;;;13.24;97.84;102060.19;5047301;28;20067;-64
2024/01/26 03:05:11;;;;;;;15.38;6.97;;;;;;;13.13;99.12;102057.84;5047892;28;20551;-64
2024/01/26 03:07:39;;;;;;;17.58;7.90;;;;;;;13.12;99.47;102064.53;5047996;28;20052;-63
2024/01/26 03:10:06;;;;;;;14.35;7.00;;;;;;;13.29;99.45;102060.13;5047663;28;20057;-64
2024/01/26 03:12:36;;;;;;;15.68;7.32;;;;;;;13.37;97.35;102070.50;5046790;28;20115;-65
2024/01/26 03:15:04;;;;;;;14.52;7.65;;;;;;;13.14;98.15;102065.06;5047618;28;20053;-67
2024/01/26 03:17:31;;;;;;;14.18;7.18;;;;;;;13.18;98.43;102061.38;5079288;28;20060;-64
2024/01/26 03:19:59;;;;;;;12.35;6.80;;;;;;;13.40;97.61;102063.56;5047492;28;20056;-65
2024/01/26 03:22:26;;;;;;;14.95;6.72;;;;;;;13.41;97.10;102054.97;5048926;28;20063;-64
2024/01/26 03:24:53;;;;;;;14.50;6.63;;;;;;;13.48;96.59;102049.03;5048057;28;20061;-64
2024/01/26 03:27:21;;;;;;;12.80;6.80;;;;;;;13.21;97.00;102048.91;5028587;28;20064;-64
2024/01/26 03:29:48;;;;;;;15.50;7.05;;;;;;;13.25;97.03;102042.47;5040097;28;20080;-63
2024/01/26 03:32:15;;;;;;;16.30;7.65;;;;;;;13.29;96.92;102042.69;5046670;28;20068;-64
2024/01/26 03:34:43;;;;;;;13.70;7.13;;;;;;;13.43;96.54;102035.28;5079792;28;20052;-66
2024/01/26 03:37:10;;;;;;;13.05;6.75;;;;;;;13.33;95.60;102030.75;5036514;28;20050;-63
2024/01/26 03:39:37;;;;;;;15.45;7.50;;;;;;;13.22;96.74;102040.31;5027532;28;20060;-65
2024/01/26 03:42:05;;;;;;;17.30;7.65;;;;;;;13.27;96.41;102031.09;5042248;28;20045;-64
2024/01/26 03:44:33;;;;;;;14.82;7.60;;;;;;;13.09;97.67;102016.13;5050369;28;20416;-65
2024/01/26 03:47:00;;;;;;;18.33;8.10;;;;;;;13.32;96.69;102012.47;5062599;28;20056;-65
2024/01/26 03:49:30;;;;;;;11.52;6.88;;;;;;;13.24;96.13;102007.63;5046971;28;20059;-63
2024/01/26 03:51:58;;;;;;;;;;;;;;;13.26;96.99;102022.00;5047053;28;20068;-63
2024/01/26 03:54:25;;;;;;;16.40;7.32;;;;;;;13.43;96.32;102026.97;5047477;28;20401;-65
2024/01/26 03:56:52;;;;;;;15.52;7.78;;;;;;;13.36;95.52;102021.81;5047420;28;20783;-64
2024/01/26 03:59:19;;;;;;;13.95;7.03;;;;;;;13.32;95.93;102023.53;5046938;28;20056;-68
2024/01/26 04:01:47;;;;;;;14.65;7.60;;;;;;;13.45;95.98;102017.25;5047769;28;20060;-65
2024/01/26 04:04:14;;;;;;;11.93;6.90;;;;;;;13.37;95.68;102020.69;5033816;28;20045;-64
2024/01/26 04:06:42;;;;;;;14.13;7.70;;;;;;;13.14;96.66;102018.03;5047161;28;20048;-63
2024/01/26 04:09:10;;;;;;;14.68;6.90;;;;;;;13.17;97.67;102026.53;5037659;28;20057;-64
2024/01/26 04:11:38;;;;;;;13.57;6.85;;;;;;;13.13;97.56;102028.25;5037287;28;20053;-63
2024/01/26 04:14:06;;;;;;;15.02;6.75;;;;;;;13.18;97.67;102033.72;5025795;28;20057;-63
2024/01/26 04:16:33;;;;;;;11.55;6.82;;;;;;;13.27;96.80;102031.91;5027010;28;20415;-63
2024/01/26 04:19:00;;;;;;;13.90;7.07;;;;;;;13.44;96.62;102036.94;5026565;28;20053;-64
2024/01/26 04:21:28;;;;;;;13.57;7.22;;;;;;;13.16;97.30;102035.94;5045670;28;20072;-64
2024/01/26 04:23:55;;;;;;;12.40;6.75;;;;;;;13.28;97.33;102043.81;5062184;28;20067;-64
2024/01/26 04:26:23;;;;;;;15.45;7.13;;;;;;;13.38;96.41;102051.97;5046921;28;20057;-65
2024/01/26 04:29:08;;;;;;;11.00;6.78;;;;;;;13.42;95.70;102051.06;5048674;28;20049;-65
2024/01/26 04:32:24;;;;;;;13.85;7.32;;;;;;;13.37;96.26;102040.06;5048831;28;20558;-65
2024/01/26 04:35:27;;;;;;;12.63;6.57;;;;;;;13.41;96.36;102052.19;5049971;28;20036;-66
2024/01/26 04:38:30;;;;;;;11.80;6.70;;;;;;;13.23;97.25;102050.22;5027713;28;20061;-64
2024/01/26 04:45:55;;;;;;;16.67;7.00;;;;;;;13.28;96.02;102049.34;5039441;28;20475;-65
2024/01/26 04:48:25;;;;;;;17.15;6.70;;;;;;;13.21;97.31;102054.44;5028993;28;20613;-65
2024/01/26 04:51:14;;;;;;;13.32;6.43;;;;;;;13.14;97.69;102063.13;5023580;28;20053;-65
2024/01/26 04:53:42;;;;;;;13.18;6.78;;;;;;;13.17;97.76;102062.50;5008252;28;20069;-64
2024/01/26 04:56:13;;;;;;;15.52;6.75;;;;;;;13.18;97.64;102049.50;4991773;28;20053;-64
2024/01/26 04:58:45;;;;;;;15.02;6.45;;;;;;;13.24;97.61;102051.06;5006950;28;20054;-64
2024/01/26 05:01:13;;;;;;;17.42;6.90;;;;;;;13.27;97.70;102047.69;5025786;28;20056;-63
2024/01/26 05:04:27;;;;;;;15.10;6.45;;;;;;;13.41;96.94;102063.25;5026791;28;20065;-66
2024/01/26 05:07:38;;;;;;;13.57;7.32;;;;;;;13.25;97.44;102041.66;5026070;28;20053;-64
2024/01/26 05:10:57;;;;;;;16.02;6.35;;;;;;;13.41;96.56;102043.06;5049885;28;20045;-66
2024/01/26 05:13:47;;;;;;;16.83;6.88;;;;;;;13.53;95.38;102038.72;5047446;28;20062;-64
2024/01/26 05:16:42;;;;;;;;;;;;;;;13.50;94.95;102044.84;5029903;28;20045;-65
2024/01/26 05:19:15;;;;;;;11.82;5.75;;;;;;;13.77;93.73;102055.22;5057624;28;19925;-63
2024/01/26 05:21:46;;;;;;;18.17;6.80;;;;;;;13.72;93.14;102035.09;5037486;28;20436;-64
2024/01/26 05:24:14;;;;;;;13.32;5.72;;;;;;;13.47;94.25;102037.16;5044811;28;20045;-64
2024/01/26 05:26:42;;;;;;;15.35;6.65;;;;;;;13.63;94.37;102032.19;5046246;28;20060;-64
2024/01/26 05:29:10;;;;;;;17.33;6.43;;;;;;;13.62;93.94;102027.78;5039206;28;20068;-63
2024/01/26 05:31:41;;;;;;;13.35;6.55;;;;;;;13.55;94.43;102030.09;5040307;28;20049;-64
2024/01/26 05:34:14;;;;;;;18.67;6.78;;;;;;;13.33;95.01;102013.31;5026581;28;20060;-64
2024/01/26 05:36:43;;;;;;;16.20;5.97;;;;;;;13.51;95.24;102024.34;5026633;28;20068;-64
2024/01/26 05:39:11;;;;;;;15.30;6.25;;;;;;;13.58;95.07;102024.78;5026171;28;20053;-63
2024/01/26 05:41:42;;;;;;;13.38;6.43;;;;;;;13.40;94.83;102036.72;5027477;28;20064;-64
2024/01/26 05:44:10;;;;;;;14.52;6.70;;;;;;;13.45;95.69;102035.81;5057858;28;20061;-65
2024/01/26 05:47:02;;;;;;;;;;;;;;;;;;;;;
2024/01/26 05:50:24;;;;;;;14.02;6.60;;;;;;;13.68;94.30;102039.59;5048057;28;20056;-63
2024/01/26 05:53:02;;;;;;;13.90;5.90;;;;;;;13.54;94.75;102058.91;5053339;28;20048;-62
2024/01/26 05:55:58;;;;;;;19.15;6.22;;;;;;;13.42;94.80;102047.47;5047322;28;20056;-64
2024/01/26 05:59:26;;;;;;;15.52;5.63;;;;;;;13.53;95.03;102051.72;5033992;28;20060;-64
2024/01/26 06:03:14;;;;;;;16.05;6.30;;;;;;;13.59;94.93;102056.06;5001255;28;20300;-65
2024/01/26 06:06:11;;;;;;;14.70;5.80;;;;;;;13.69;94.39;102061.44;5052504;28;20056;-64
2024/01/26 06:09:35;;;;;;;13.85;5.75;;;;;;;13.74;93.70;102079.94;5050398;28;20550;-65
2024/01/26 06:12:39;;;;;;;17.65;6.20;;;;;;;13.27;96.11;102069.84;5067101;28;20053;-65
2024/01/26 06:16:03;;;;;;;12.65;5.82;;;;;;;13.44;95.31;102082.03;5062450;28;20064;-66
2024/01/26 06:18:34;;;;;;;18.17;5.88;;;;;;;13.49;95.89;102079.19;5030637;28;20066;-66
2024/01/26 06:21:04;;;;;;;11.93;5.90;;;;;;;13.62;95.27;102076.78;5064101;28;20068;-66
2024/01/26 06:24:14;;;;;;;16.92;6.13;;;;;;;13.68;94.77;102081.97;5041876;28;20527;-66
2024/01/26 06:31:06;;;;;;;15.30;6.32;;;;;;;13.79;93.96;102074.31;5029989;28;20061;-65
2024/01/26 06:33:34;;;;;;;16.60;6.95;;;;;;;13.57;94.65;102077.69;5037464;28;20060;-65
2024/01/26 06:36:16;;;;;;;16.27;5.57;;;;;;;13.63;95.00;102073.72;5067271;28;20048;-64
2024/01/26 06:39:11;;;;;;;15.98;6.60;;;;;;;13.76;94.75;102075.72;5052909;28;20056;-65
2024/01/26 06:42:25;;;;;;;21.05;6.57;;;;;;;13.63;94.30;102084.81;5054315;28;20515;-64
2024/01/26 06:44:53;;;;;;;14.73;6.05;;;;;;;13.66;94.88;102094.44;5064105;28;20052;-64
2024/01/26 06:47:21;;;;;;;21.35;6.65;;;;;;;13.54;95.37;102095.75;5049515;28;20518;-65
2024/01/26 06:49:48;;;;;;;15.50;5.68;;;;;;;13.69;95.25;102093.81;5075009;28;20049;-65
2024/01/26 06:52:15;;;;;;;18.17;6.20;;;;;;;13.96;94.06;102099.50;5048698;28;20052;-64
2024/01/26 06:54:43;;;;;;;14.32;6.07;;;;;;;13.83;94.41;102105.78;5048431;28;20899;-64
2024/01/26 06:57:10;;;;;;;15.60;6.22;;;;;;;14.04;93.34;102099.63;5046995;28;20841;-64
2024/01/26 06:59:38;;;;;;;16.95;6.45;;;;;;;13.79;93.56;102097.25;5048208;28;20044;-63
2024/01/26 07:02:06;;;;;;;17.58;5.65;;;;;;;13.53;95.58;102116.22;5082904;28;20067;-63
2024/01/26 07:04:33;;;;;;;16.40;5.75;;;;;;;13.59;96.01;102108.66;5058738;28;20056;-63
2024/01/26 07:07:00;;;;;;;17.77;5.82;;;;;;;13.61;96.04;102105.59;5047154;28;20736;-63
2024/01/26 07:09:27;;;;;;;20.55;6.15;;;;;;;13.77;95.76;102112.56;5040766;28;20064;-64
2024/01/26 07:11:57;;;;;;;18.52;6.25;;;;;;;13.74;95.90;102116.72;5037567;28;20049;-63
2024/01/26 07:14:25;;;;;;;17.80;5.22;;;;;;;13.95;95.11;102111.69;5043450;28;20052;-63
2024/01/26 07:16:52;;;;;;;17.98;6.15;;;;;;;13.69;96.09;102115.97;5069064;28;20069;-62
2024/01/26 07:19:20;;;;;;;12.38;5.18;;;;;;;13.96;99.18;102116.13;5033086;28;20064;-63
2024/01/26 07:21:47;;;;;;;12.57;4.97;;;;;;;14.23;97.05;102113.44;5043062;28;20533;-63
2024/01/26 07:24:15;;;;;;;15.50;5.40;;;;;;;13.90;95.83;102114.53;5048244;28;20515;-61
2024/01/26 07:26:46;;;;;;;16.73;6.38;;;;;;;13.92;97.10;102126.16;5037610;28;20051;-64
2024/01/26 07:29:13;;;;;;;20.08;6.70;;;;;;;13.91;97.17;102124.50;5035464;28;20049;-64
2024/01/26 07:31:41;;;;;;;16.83;6.03;;;;;;;13.85;97.63;102126.53;5048117;28;20052;-63
2024/01/26 07:34:08;;;;;;;18.70;5.78;;;;;;;13.64;99.45;102138.22;5042179;28;20053;-64
2024/01/26 07:36:36;;;;;;;17.42;6.75;;;;;;;13.62;100.00;102140.44;5051165;28;20057;-61
2024/01/26 07:39:10;;;;;;;19.08;6.38;;;;;;;13.57;100.00;102146.91;5040706;28;20044;-63
2024/01/26 07:41:37;;;;;;;13.70;5.28;;;;;;;13.61;100.00;102147.13;5064557;28;20049;-62
2024/01/26 07:44:05;;;;;;;14.90;5.20;;;;;;;13.49;100.00;102151.16;5019503;28;20060;-61
2024/01/26 07:46:32;;;;;;;14.32;5.70;;;;;;;13.59;100.00;102147.44;5035081;28;20057;-62
2024/01/26 07:49:00;;;;;;;17.90;5.80;;;;;;;13.55;100.00;102146.38;5036886;28;20056;-62
2024/01/26 07:51:28;;;;;;;16.70;4.80;;;;;;;13.69;100.00;102152.81;5044374;28;20148;-62
2024/01/26 07:53:56;;;;;;;13.48;5.78;;;;;;;14.00;100.00;102147.66;5041343;28;20060;-62
2024/01/26 07:56:23;;;;;;;13.80;5.25;;;;;;;14.02;100.00;102156.44;5039992;28;20053;-63
2024/01/26 07:58:50;;;;;;;13.45;4.85;;;;;;;13.78;100.00;102164.03;5055266;28;20084;-61
2024/01/26 08:01:18;;;;;;;14.93;5.55;;;;;;;13.77;100.00;102167.94;5045552;28;20742;-64
2024/01/26 08:03:46;;;;;;;12.32;4.93;;;;;;;13.82;100.00;102154.84;5038034;28;20049;-62
2024/01/26 08:06:16;;;;;;;;;;;;;;;13.87;100.00;102154.75;5039271;28;20045;-61
2024/01/26 08:08:43;;;;;;;12.25;4.32;;;;;;;13.76;100.00;102158.81;5036570;28;19936;-61
2024/01/26 08:11:11;;;;;;;9.32;3.75;;;;;;;13.62;100.00;102159.84;5032132;28;20052;-62
2024/01/26 08:13:38;;;;;;;10.75;4.40;;;;;;;13.73;100.00;102170.47;5040531;28;20607;-61
2024/01/26 08:16:06;;;;;;;9.40;3.80;;;;;;;13.94;100.00;102159.91;5031844;28;20052;-62
2024/01/26 08:18:33;;;;;;;10.45;3.30;;;;;;;13.88;100.00;102167.47;5045692;28;20063;-59
2024/01/26 08:21:01;;;;;;;11.65;3.92;;;;;;;13.93;100.00;102183.22;5035666;28;20041;-61
2024/01/26 08:23:28;;;;;;;11.32;3.42;;;;;;;13.95;100.00;102180.94;5036416;28;20060;-62
2024/01/26 08:25:56;;;;;;;8.93;3.65;;;;;;;13.93;100.00;102194.28;5043835;28;20056;-60
2024/01/26 08:28:23;;;;;;;6.65;3.30;;;;;;;13.57;100.00;102203.09;5033903;28;20056;-60
2024/01/26 08:30:51;;;;;;;9.73;3.28;;;;;;;13.82;100.00;102209.41;5035900;28;20065;-60
2024/01/26 08:33:19;;;;;;;11.77;3.38;;;;;;;13.74;100.00;102194.28;5040535;28;20614;-63
2024/01/26 08:35:47;;;;;;;9.13;3.40;;;;;;;13.76;100.00;102207.81;5027805;28;20049;-61
2024/01/26 08:38:14;;;;;;;11.48;3.67;;;;;;;13.69;100.00;102218.44;5043692;28;20120;-61
2024/01/26 08:40:41;;;;;;;10.20;3.40;;;;;;;13.43;100.00;102196.66;5039945;28;20054;-61
2024/01/26 08:43:09;;;;;;;8.85;2.85;;;;;;;13.43;100.00;102216.03;5046915;28;20088;-62
2024/01/26 08:45:36;;;;;;;10.40;3.38;;;;;;;13.48;100.00;102223.44;5044685;28;20056;-62
2024/01/26 08:48:04;;;;;;;7.47;3.00;;;;;;;13.58;100.00;102224.13;5039195;28;20053;-62
2024/01/26 08:50:31;;;;;;;8.32;3.50;;;;;;;13.71;100.00;102217.03;5034189;28;20053;-61
2024/01/26 08:52:59;;;;;;;6.50;2.95;;;;;;;13.73;100.00;102227.81;5044550;28;20055;-62
2024/01/26 08:55:26;;;;;;;6.80;3.25;;;;;;;13.79;100.00;102235.75;5045400;28;20056;-62
2024/01/26 08:57:53;;;;;;;7.63;2.90;;;;;;;13.45;100.00;102235.94;5040665;28;20045;-65
2024/01/26 09:00:21;;;;;;;6.45;2.75;;;;;;;13.56;100.00;102239.41;5039413;28;20060;-63
2024/01/26 09:02:48;;;;;;;7.07;2.33;;;;;;;13.55;100.00;102237.72;5059914;28;20058;-66
2024/01/26 09:05:16;;;;;;;5.90;2.45;;;;;;;13.25;100.00;102246.44;5035338;28;20049;-65
2024/01/26 09:07:43;;;;;;;5.13;2.17;;;;;;;13.29;100.00;102236.41;5040995;28;20052;-65
2024/01/26 09:10:11;;;;;;;6.63;2.53;;;;;;;13.23;100.00;102238.38;5035231;28;20080;-64
2024/01/26 09:12:38;;;;;;;6.85;2.47;;;;;;;13.27;100.00;102239.47;5041866;28;20068;-64
2024/01/26 09:15:06;;;;;;;6.95;2.40;;;;;;;13.48;100.00;102242.81;5040241;28;20750;-65
2024/01/26 09:17:33;;;;;;;6.43;2.20;;;;;;;13.52;100.00;102243.88;5038831;28;20049;-64
2024/01/26 09:20:01;;;;;;;6.47;2.10;;;;;;;13.58;100.00;102243.50;5047539;28;20057;-64
2024/01/26 09:22:29;;;;;;;6.43;2.25;;;;;;;13.68;100.00;102248.09;5039456;28;20046;-64
2024/01/26 09:24:56;;;;;;;9.75;2.85;;;;;;;13.62;100.00;102248.44;5045022;28;20056;-64
2024/01/26 09:27:23;;;;;;;5.50;2.10;;;;;;;13.57;100.00;102249.34;5035374;28;20058;-63
2024/01/26 09:29:50;;;;;;;6.38;2.38;;;;;;;13.78;100.00;102258.19;5041637;28;20045;-63
2024/01/26 09:32:18;;;;;;;4.72;2.20;;;;;;;13.95;100.00;102264.03;5037741;28;20057;-64
2024/01/26 09:34:45;;;;;;;9.10;1.80;;;;;;;13.69;100.00;102282.97;5032075;28;20056;-64
2024/01/26 09:37:13;;;;;;;6.13;3.03;;;;;;;13.71;100.00;102286.25;5046473;28;20147;-65
2024/01/26 09:39:41;;;;;;;7.45;2.90;;;;;;;13.67;100.00;102289.94;5065346;28;20065;-63
2024/01/26 09:42:09;;;;;;;7.78;2.88;;;;;;;13.51;100.00;102290.09;5030900;28;20049;-65
2024/01/26 09:44:36;;;;;;;5.85;2.13;;;;;;;13.44;100.00;102297.94;5038050;28;20054;-64
2024/01/26 09:47:07;;;;;;;4.32;1.58;;;;;;;13.83;100.00;102297.72;5064326;28;20594;-63
2024/01/26 09:49:36;;;;;;;3.50;1.50;;;;;;;13.44;100.00;102314.53;5044622;28;20057;-63
2024/01/26 09:52:05;;;;;;;6.47;2.13;;;;;;;13.29;100.00;102317.47;5041552;28;20048;-62
2024/01/26 09:54:36;;;;;;;5.22;1.40;;;;;;;13.20;100.00;102316.47;5060874;28;20439;-63
2024/01/26 09:57:04;;;;;;;3.30;1.30;;;;;;;12.96;100.00;102331.31;5038701;28;20060;-63
2024/01/26 09:59:32;;;;;;;5.07;1.83;;;;;;;13.10;100.00;102348.94;5044467;28;20056;-62
2024/01/26 10:02:00;;;;;;;3.40;1.02;;;;;;;12.30;100.00;102381.56;5040887;28;20080;-63
2024/01/26 10:04:36;;;;;;;7.22;1.27;;;;;;;11.98;100.00;102396.88;5042244;28;20056;-63
2024/01/26 10:07:04;;;;;;;4.72;1.20;;;;;;;11.93;100.00;102388.63;5046221;28;20504;-63
2024/01/26 10:09:34;;;;;;;5.25;1.30;;;;;;;11.83;100.00;102375.69;5047298;28;20053;-63
2024/01/26 10:12:02;;;;;;;9.02;1.92;;;;;;;11.95;100.00;102383.66;5041365;28;20610;-64
2024/01/26 10:14:30;;;;;;;8.77;1.73;;;;;;;12.02;100.00;102384.19;5041942;28;20056;-63
2024/01/26 10:17:15;;;;;;;7.38;1.45;;;;;;;11.86;100.00;102401.91;5046817;28;20132;-63
2024/01/26 10:20:18;;;;;;;4.18;1.13;;;;;;;11.81;100.00;102411.03;5036913;28;20680;-63
2024/01/26 10:22:57;;;;;;;5.57;1.00;;;;;;;11.69;99.09;102437.28;5035858;28;20068;-63
2024/01/26 10:25:24;;;;;;;8.00;1.63;;;;;;;11.49;93.80;102418.78;5035978;28;20112;-63
2024/01/26 10:27:52;;;;;;;6.50;1.10;;;;;;;11.56;91.29;102432.34;5046326;28;20059;-62
2024/01/26 10:30:20;;;;;;;10.95;4.00;;;;;;;11.69;91.67;102429.00;5042486;28;20084;-63
2024/01/26 10:32:49;;;;;;;5.55;1.00;;;;;;;11.77;90.50;102422.94;5048024;27;20045;-63
2024/01/26 10:35:18;;;;;;;9.85;1.45;;;;;;;11.78;88.05;102425.41;5048005;28;20041;-64
2024/01/26 10:37:46;;;;;;;7.57;1.88;;;;;;;11.97;88.72;102428.38;5046364;28;20152;-63
2024/01/26 10:40:16;;;;;;;5.88;1.30;;;;;;;11.99;85.62;102442.75;5044534;28;20913;-64
2024/01/26 10:42:46;;;;;;;9.02;1.38;;;;;;;11.96;83.53;102455.16;5044921;28;20490;-63
2024/01/26 10:45:14;;;;;;;7.60;1.73;;;;;;;11.89;85.11;102446.34;5031528;28;20053;-63
2024/01/26 10:47:41;;;;;;;11.48;3.13;;;;;;;11.99;84.42;102451.03;5047858;28;20053;-65
2024/01/26 10:50:11;;;;;;;11.07;1.75;;;;;;;11.83;84.28;102453.00;5047779;28;20064;-62
2024/01/26 10:52:40;;;;;;;11.50;2.00;;;;;;;12.12;84.84;102454.03;5028307;28;20050;-65
2024/01/26 10:55:08;;;;;;;11.63;2.03;;;;;;;12.20;82.62;102466.44;5033835;28;20064;-63
2024/01/26 10:57:36;;;;;;;9.75;1.63;;;;;;;11.89;83.89;102457.41;5043234;28;20060;-61
2024/01/26 11:00:05;;;;;;;9.27;1.45;;;;;;;12.04;84.38;102459.31;5024089;28;20063;-62
2024/01/26 11:02:34;;;;;;;14.25;2.55;;;;;;;12.27;83.61;102475.25;5025027;28;20049;-61
2024/01/26 11:05:02;;;;;;;15.13;5.25;;;;;;;12.03;84.37;102479.75;5043342;28;20503;-65
2024/01/26 11:07:39;;;;;;;10.68;2.65;;;;;;;11.86;83.80;102459.88;5031738;28;21077;-55
2024/01/26 11:10:24;;;;;;;13.63;3.42;;;;;;;12.25;84.12;102469.19;5038923;28;20072;-58
2024/01/26 11:13:05;;;;;;;13.05;3.45;;;;;;;12.09;80.07;102495.19;5044279;28;20440;-58
2024/01/26 11:15:34;;;;;;;12.85;2.65;;;;;;;12.01;81.92;102496.56;5040477;28;20067;-59
2024/01/26 11:18:03;;;;;;;11.43;3.87;;;;;;;11.98;82.69;102493.53;5046670;28;20569;-57
2024/01/26 11:20:35;;;;;;;15.07;2.50;;;;;;;12.04;81.13;102509.84;5059872;28;20284;-53
2024/01/26 11:23:11;;;;;;;15.43;2.83;;;;;;;11.86;80.85;102504.06;5046877;28;20052;-55
2024/01/26 11:25:41;;;;;;;15.65;2.65;;;;;;;11.95;80.51;102506.00;5047326;28;20779;-57
2024/01/26 11:28:08;;;;;;;15.98;2.47;;;;;;;12.03;80.91;102507.38;5032637;28;20060;-57
2024/01/26 11:30:37;;;;;;;14.43;2.38;;;;;;;12.05;78.94;102505.97;5045590;28;20057;-56
2024/01/26 11:33:18;;;;;;;16.10;3.13;;;;;;;11.96;77.47;102513.16;5038952;28;20061;-59
2024/01/26 11:35:46;;;;;;;18.92;3.00;;;;;;;11.85;75.78;102530.03;5041442;28;20049;-56
2024/01/26 11:38:15;;;;;;;19.63;3.17;;;;;;;11.93;74.87;102535.81;5035658;28;20075;-62
2024/01/26 11:40:43;;;;;;;15.77;3.38;;;;;;;12.11;75.72;102537.19;5055934;28;20299;-59
2024/01/26 11:43:10;;;;;;;19.58;4.95;;;;;;;12.41;75.20;102548.97;5038270;28;20052;-59
2024/01/26 11:45:42;;;;;;;22.92;6.07;;;;;;;12.17;75.71;102547.94;5042939;28;20064;-56